sensor_id;sensor_type;location;lat;lon;timestamp;P1;durP1;ratioP1;P2;durP2;ratioP2
54201;SDS011;40108;53.152;5.844;2023-06-22T00:00:52;30.92;;;26.00;;
54201;SDS011;40108;53.152;5.844;2023-06-22T00:03:19;29.02;;;23.80;;
54201;SDS011;40108;53.152;5.844;2023-06-22T00:05:47;35.63;;;28.45;;
54201;SDS011;40108;53.152;5.844;2023-06-22T00:08:13;41.65;;;32.05;;
54201;SDS011;40108;53.152;5.844;2023-06-22T00:10:39;44.08;;;35.80;;
54201;SDS011;40108;53.152;5.844;2023-06-22T00:13:06;47.15;;;34.85;;
54201;SDS011;40108;53.152;5.844;2023-06-22T00:15:32;68.32;;;45.60;;
54201;SDS011;40108;53.152;5.844;2023-06-22T00:17:58;63.03;;;44.60;;
54201;SDS011;40108;53.152;5.844;2023-06-22T00:20:24;63.92;;;44.28;;
54201;SDS011;40108;53.152;5.844;2023-06-22T00:22:55;49.28;;;38.33;;
54201;SDS011;40108;53.152;5.844;2023-06-22T00:25:21;51.63;;;38.33;;
54201;SDS011;40108;53.152;5.844;2023-06-22T00:27:47;50.95;;;37.75;;
54201;SDS011;40108;53.152;5.844;2023-06-22T00:30:14;46.03;;;35.75;;
54201;SDS011;40108;53.152;5.844;2023-06-22T00:32:42;41.97;;;34.28;;
54201;SDS011;40108;53.152;5.844;2023-06-22T00:35:08;48.78;;;35.42;;
54201;SDS011;40108;53.152;5.844;2023-06-22T00:37:35;43.13;;;32.55;;
54201;SDS011;40108;53.152;5.844;2023-06-22T00:40:06;40.83;;;31.90;;
54201;SDS011;40108;53.152;5.844;2023-06-22T00:42:34;41.15;;;33.30;;
54201;SDS011;40108;53.152;5.844;2023-06-22T00:45:00;44.72;;;31.70;;
54201;SDS011;40108;53.152;5.844;2023-06-22T00:47:25;40.13;;;32.13;;
54201;SDS011;40108;53.152;5.844;2023-06-22T00:49:52;49.22;;;35.85;;
54201;SDS011;40108;53.152;5.844;2023-06-22T00:52:21;42.70;;;31.35;;
54201;SDS011;40108;53.152;5.844;2023-06-22T00:54:52;53.20;;;36.95;;
54201;SDS011;40108;53.152;5.844;2023-06-22T00:57:19;42.22;;;31.63;;
54201;SDS011;40108;53.152;5.844;2023-06-22T00:59:46;45.22;;;33.40;;
54201;SDS011;40108;53.152;5.844;2023-06-22T01:02:13;38.92;;;30.15;;
54201;SDS011;40108;53.152;5.844;2023-06-22T01:04:39;49.33;;;34.72;;
54201;SDS011;40108;53.152;5.844;2023-06-22T01:09:57;45.63;;;33.90;;
54201;SDS011;40108;53.152;5.844;2023-06-22T01:12:48;43.60;;;32.65;;
54201;SDS011;40108;53.152;5.844;2023-06-22T01:15:31;44.25;;;33.00;;
54201;SDS011;40108;53.152;5.844;2023-06-22T01:18:02;46.83;;;34.60;;
54201;SDS011;40108;53.152;5.844;2023-06-22T01:20:31;50.05;;;37.22;;
54201;SDS011;40108;53.152;5.844;2023-06-22T01:25:43;31.25;;;27.77;;
54201;SDS011;40108;53.152;5.844;2023-06-22T01:31:03;50.00;;;35.90;;
54201;SDS011;40108;53.152;5.844;2023-06-22T01:33:31;49.63;;;35.80;;
54201;SDS011;40108;53.152;5.844;2023-06-22T01:36:00;52.15;;;38.35;;
54201;SDS011;40108;53.152;5.844;2023-06-22T01:38:27;54.25;;;38.60;;
54201;SDS011;40108;53.152;5.844;2023-06-22T01:40:54;51.40;;;38.33;;
54201;SDS011;40108;53.152;5.844;2023-06-22T01:43:22;51.38;;;37.88;;
54201;SDS011;40108;53.152;5.844;2023-06-22T01:45:51;38.40;;;30.58;;
54201;SDS011;40108;53.152;5.844;2023-06-22T01:48:18;42.33;;;32.75;;
54201;SDS011;40108;53.152;5.844;2023-06-22T01:50:46;34.42;;;28.83;;
54201;SDS011;40108;53.152;5.844;2023-06-22T01:53:12;33.95;;;28.48;;
54201;SDS011;40108;53.152;5.844;2023-06-22T01:55:38;41.67;;;30.65;;
54201;SDS011;40108;53.152;5.844;2023-06-22T01:58:04;45.13;;;34.25;;
54201;SDS011;40108;53.152;5.844;2023-06-22T02:00:31;39.00;;;30.92;;
54201;SDS011;40108;53.152;5.844;2023-06-22T02:05:39;26.98;;;23.80;;
54201;SDS011;40108;53.152;5.844;2023-06-22T02:08:13;30.25;;;26.42;;
54201;SDS011;40108;53.152;5.844;2023-06-22T02:10:50;29.40;;;26.30;;
54201;SDS011;40108;53.152;5.844;2023-06-22T02:13:18;31.15;;;26.33;;
54201;SDS011;40108;53.152;5.844;2023-06-22T02:15:44;27.95;;;24.98;;
54201;SDS011;40108;53.152;5.844;2023-06-22T02:18:11;29.52;;;25.45;;
54201;SDS011;40108;53.152;5.844;2023-06-22T02:20:38;31.92;;;26.90;;
54201;SDS011;40108;53.152;5.844;2023-06-22T02:23:05;30.02;;;25.63;;
54201;SDS011;40108;53.152;5.844;2023-06-22T02:25:32;30.67;;;26.00;;
54201;SDS011;40108;53.152;5.844;2023-06-22T02:27:58;33.40;;;29.23;;
54201;SDS011;40108;53.152;5.844;2023-06-22T02:30:24;36.45;;;29.33;;
54201;SDS011;40108;53.152;5.844;2023-06-22T02:32:50;38.30;;;30.33;;
54201;SDS011;40108;53.152;5.844;2023-06-22T02:35:23;41.65;;;32.90;;
54201;SDS011;40108;53.152;5.844;2023-06-22T02:37:50;31.00;;;27.13;;
54201;SDS011;40108;53.152;5.844;2023-06-22T02:40:16;21.95;;;19.75;;
54201;SDS011;40108;53.152;5.844;2023-06-22T02:42:42;21.33;;;19.13;;
54201;SDS011;40108;53.152;5.844;2023-06-22T02:45:08;22.70;;;20.33;;
54201;SDS011;40108;53.152;5.844;2023-06-22T02:47:34;22.05;;;19.88;;
54201;SDS011;40108;53.152;5.844;2023-06-22T02:50:00;21.95;;;19.77;;
54201;SDS011;40108;53.152;5.844;2023-06-22T02:52:26;32.03;;;23.35;;
54201;SDS011;40108;53.152;5.844;2023-06-22T02:54:52;84.05;;;24.13;;
54201;SDS011;40108;53.152;5.844;2023-06-22T02:57:18;107.25;;;20.52;;
54201;SDS011;40108;53.152;5.844;2023-06-22T02:59:43;29.85;;;19.52;;
54201;SDS011;40108;53.152;5.844;2023-06-22T03:02:09;45.63;;;18.13;;
54201;SDS011;40108;53.152;5.844;2023-06-22T03:04:36;104.18;;;23.58;;
54201;SDS011;40108;53.152;5.844;2023-06-22T03:07:02;175.23;;;26.80;;
54201;SDS011;40108;53.152;5.844;2023-06-22T03:09:28;102.88;;;26.30;;
54201;SDS011;40108;53.152;5.844;2023-06-22T03:11:54;73.32;;;29.63;;
54201;SDS011;40108;53.152;5.844;2023-06-22T03:14:20;100.40;;;29.92;;
54201;SDS011;40108;53.152;5.844;2023-06-22T03:16:46;46.50;;;29.55;;
54201;SDS011;40108;53.152;5.844;2023-06-22T03:19:12;115.68;;;27.05;;
54201;SDS011;40108;53.152;5.844;2023-06-22T03:21:39;36.40;;;24.15;;
54201;SDS011;40108;53.152;5.844;2023-06-22T03:24:05;52.25;;;23.98;;
54201;SDS011;40108;53.152;5.844;2023-06-22T03:26:32;45.10;;;22.58;;
54201;SDS011;40108;53.152;5.844;2023-06-22T03:28:58;73.00;;;25.23;;
54201;SDS011;40108;53.152;5.844;2023-06-22T03:31:24;27.90;;;25.10;;
54201;SDS011;40108;53.152;5.844;2023-06-22T03:33:50;64.80;;;23.83;;
54201;SDS011;40108;53.152;5.844;2023-06-22T03:36:16;65.50;;;24.42;;
54201;SDS011;40108;53.152;5.844;2023-06-22T03:38:47;122.38;;;25.52;;
54201;SDS011;40108;53.152;5.844;2023-06-22T03:41:14;67.03;;;26.52;;
54201;SDS011;40108;53.152;5.844;2023-06-22T03:43:40;92.10;;;28.05;;
54201;SDS011;40108;53.152;5.844;2023-06-22T03:46:06;83.18;;;30.77;;
54201;SDS011;40108;53.152;5.844;2023-06-22T03:48:32;133.13;;;33.80;;
54201;SDS011;40108;53.152;5.844;2023-06-22T03:50:59;132.60;;;35.05;;
54201;SDS011;40108;53.152;5.844;2023-06-22T03:53:25;159.95;;;37.28;;
54201;SDS011;40108;53.152;5.844;2023-06-22T03:55:52;55.80;;;32.83;;
54201;SDS011;40108;53.152;5.844;2023-06-22T03:58:18;79.55;;;34.38;;
54201;SDS011;40108;53.152;5.844;2023-06-22T04:00:51;49.78;;;33.83;;
54201;SDS011;40108;53.152;5.844;2023-06-22T04:03:18;65.90;;;36.90;;
54201;SDS011;40108;53.152;5.844;2023-06-22T04:05:44;47.47;;;34.20;;
54201;SDS011;40108;53.152;5.844;2023-06-22T04:08:11;41.42;;;32.85;;
54201;SDS011;40108;53.152;5.844;2023-06-22T04:10:38;36.85;;;29.48;;
54201;SDS011;40108;53.152;5.844;2023-06-22T04:13:04;33.92;;;30.23;;
54201;SDS011;40108;53.152;5.844;2023-06-22T04:15:29;33.85;;;30.52;;
54201;SDS011;40108;53.152;5.844;2023-06-22T04:17:55;32.70;;;29.25;;
54201;SDS011;40108;53.152;5.844;2023-06-22T04:20:22;33.83;;;29.65;;
54201;SDS011;40108;53.152;5.844;2023-06-22T04:22:52;31.83;;;28.50;;
54201;SDS011;40108;53.152;5.844;2023-06-22T04:25:20;34.05;;;30.30;;
54201;SDS011;40108;53.152;5.844;2023-06-22T04:27:47;31.80;;;28.15;;
54201;SDS011;40108;53.152;5.844;2023-06-22T04:30:13;32.97;;;27.08;;
54201;SDS011;40108;53.152;5.844;2023-06-22T04:32:43;30.77;;;27.60;;
54201;SDS011;40108;53.152;5.844;2023-06-22T04:35:10;28.70;;;26.02;;
54201;SDS011;40108;53.152;5.844;2023-06-22T04:37:35;25.70;;;23.23;;
54201;SDS011;40108;53.152;5.844;2023-06-22T04:40:01;27.40;;;24.73;;
54201;SDS011;40108;53.152;5.844;2023-06-22T04:42:29;26.33;;;23.90;;
54201;SDS011;40108;53.152;5.844;2023-06-22T04:44:55;26.38;;;24.08;;
54201;SDS011;40108;53.152;5.844;2023-06-22T04:47:21;24.15;;;21.98;;
54201;SDS011;40108;53.152;5.844;2023-06-22T04:49:47;24.83;;;22.52;;
54201;SDS011;40108;53.152;5.844;2023-06-22T04:52:12;24.80;;;22.55;;
54201;SDS011;40108;53.152;5.844;2023-06-22T04:54:42;23.65;;;21.52;;
54201;SDS011;40108;53.152;5.844;2023-06-22T04:57:15;25.02;;;22.80;;
54201;SDS011;40108;53.152;5.844;2023-06-22T04:59:42;28.00;;;25.13;;
54201;SDS011;40108;53.152;5.844;2023-06-22T05:02:08;27.00;;;24.40;;
54201;SDS011;40108;53.152;5.844;2023-06-22T05:04:34;29.33;;;26.30;;
54201;SDS011;40108;53.152;5.844;2023-06-22T05:07:03;31.33;;;28.27;;
54201;SDS011;40108;53.152;5.844;2023-06-22T05:09:29;33.40;;;29.85;;
54201;SDS011;40108;53.152;5.844;2023-06-22T05:11:56;31.67;;;28.45;;
54201;SDS011;40108;53.152;5.844;2023-06-22T05:14:22;33.38;;;29.88;;
54201;SDS011;40108;53.152;5.844;2023-06-22T05:16:48;35.08;;;28.58;;
54201;SDS011;40108;53.152;5.844;2023-06-22T05:19:17;32.97;;;29.55;;
54201;SDS011;40108;53.152;5.844;2023-06-22T05:21:43;40.17;;;31.50;;
54201;SDS011;40108;53.152;5.844;2023-06-22T05:24:08;34.65;;;30.70;;
54201;SDS011;40108;53.152;5.844;2023-06-22T05:26:34;36.80;;;31.63;;
54201;SDS011;40108;53.152;5.844;2023-06-22T05:29:01;34.42;;;30.52;;
54201;SDS011;40108;53.152;5.844;2023-06-22T05:31:28;36.55;;;32.17;;
54201;SDS011;40108;53.152;5.844;2023-06-22T05:33:54;38.63;;;33.15;;
54201;SDS011;40108;53.152;5.844;2023-06-22T05:36:20;35.83;;;30.77;;
54201;SDS011;40108;53.152;5.844;2023-06-22T05:38:50;33.58;;;29.98;;
54201;SDS011;40108;53.152;5.844;2023-06-22T05:41:18;36.35;;;31.10;;
54201;SDS011;40108;53.152;5.844;2023-06-22T05:43:44;36.22;;;31.90;;
54201;SDS011;40108;53.152;5.844;2023-06-22T05:46:10;38.55;;;32.33;;
54201;SDS011;40108;53.152;5.844;2023-06-22T05:48:36;35.88;;;31.65;;
54201;SDS011;40108;53.152;5.844;2023-06-22T05:51:02;35.75;;;31.83;;
54201;SDS011;40108;53.152;5.844;2023-06-22T05:53:27;38.80;;;30.90;;
54201;SDS011;40108;53.152;5.844;2023-06-22T05:55:53;36.10;;;31.55;;
54201;SDS011;40108;53.152;5.844;2023-06-22T05:58:19;37.10;;;30.95;;
54201;SDS011;40108;53.152;5.844;2023-06-22T06:00:45;39.45;;;31.05;;
54201;SDS011;40108;53.152;5.844;2023-06-22T06:03:11;36.83;;;30.88;;
54201;SDS011;40108;53.152;5.844;2023-06-22T06:05:37;37.05;;;30.38;;
54201;SDS011;40108;53.152;5.844;2023-06-22T06:08:04;35.10;;;30.77;;
54201;SDS011;40108;53.152;5.844;2023-06-22T06:10:31;38.20;;;29.30;;
54201;SDS011;40108;53.152;5.844;2023-06-22T06:12:58;34.80;;;29.55;;
54201;SDS011;40108;53.152;5.844;2023-06-22T06:15:27;36.65;;;28.92;;
54201;SDS011;40108;53.152;5.844;2023-06-22T06:17:53;48.95;;;29.90;;
54201;SDS011;40108;53.152;5.844;2023-06-22T06:20:20;39.20;;;28.20;;
54201;SDS011;40108;53.152;5.844;2023-06-22T06:22:48;37.20;;;29.92;;
54201;SDS011;40108;53.152;5.844;2023-06-22T06:25:14;35.33;;;29.80;;
54201;SDS011;40108;53.152;5.844;2023-06-22T06:27:48;46.33;;;30.50;;
54201;SDS011;40108;53.152;5.844;2023-06-22T06:30:16;36.10;;;29.00;;
54201;SDS011;40108;53.152;5.844;2023-06-22T06:32:43;46.25;;;29.98;;
54201;SDS011;40108;53.152;5.844;2023-06-22T06:35:11;42.47;;;29.95;;
54201;SDS011;40108;53.152;5.844;2023-06-22T06:37:38;48.35;;;29.73;;
54201;SDS011;40108;53.152;5.844;2023-06-22T06:40:06;38.78;;;29.58;;
54201;SDS011;40108;53.152;5.844;2023-06-22T06:42:39;33.47;;;27.95;;
54201;SDS011;40108;53.152;5.844;2023-06-22T06:45:10;36.67;;;28.50;;
54201;SDS011;40108;53.152;5.844;2023-06-22T06:47:37;30.58;;;27.10;;
54201;SDS011;40108;53.152;5.844;2023-06-22T06:50:04;35.05;;;28.40;;
54201;SDS011;40108;53.152;5.844;2023-06-22T06:52:31;31.88;;;27.55;;
54201;SDS011;40108;53.152;5.844;2023-06-22T06:54:56;36.60;;;27.08;;
54201;SDS011;40108;53.152;5.844;2023-06-22T06:57:22;35.63;;;26.05;;
54201;SDS011;40108;53.152;5.844;2023-06-22T06:59:48;31.75;;;26.42;;
54201;SDS011;40108;53.152;5.844;2023-06-22T07:02:14;31.20;;;25.83;;
54201;SDS011;40108;53.152;5.844;2023-06-22T07:04:40;34.03;;;26.13;;
54201;SDS011;40108;53.152;5.844;2023-06-22T07:07:06;32.70;;;25.10;;
54201;SDS011;40108;53.152;5.844;2023-06-22T07:09:32;28.88;;;24.15;;
54201;SDS011;40108;53.152;5.844;2023-06-22T07:11:58;26.95;;;24.02;;
54201;SDS011;40108;53.152;5.844;2023-06-22T07:14:24;26.90;;;24.00;;
54201;SDS011;40108;53.152;5.844;2023-06-22T07:16:49;28.23;;;24.17;;
54201;SDS011;40108;53.152;5.844;2023-06-22T07:19:15;28.33;;;23.80;;
54201;SDS011;40108;53.152;5.844;2023-06-22T07:21:41;26.88;;;22.83;;
54201;SDS011;40108;53.152;5.844;2023-06-22T07:24:07;28.42;;;22.48;;
54201;SDS011;40108;53.152;5.844;2023-06-22T07:26:33;25.83;;;21.35;;
54201;SDS011;40108;53.152;5.844;2023-06-22T07:28:59;28.98;;;21.90;;
54201;SDS011;40108;53.152;5.844;2023-06-22T07:31:25;20.50;;;17.58;;
54201;SDS011;40108;53.152;5.844;2023-06-22T07:33:50;24.98;;;18.33;;
54201;SDS011;40108;53.152;5.844;2023-06-22T07:36:17;22.15;;;17.88;;
54201;SDS011;40108;53.152;5.844;2023-06-22T07:38:43;22.30;;;18.98;;
54201;SDS011;40108;53.152;5.844;2023-06-22T07:41:09;20.98;;;16.92;;
54201;SDS011;40108;53.152;5.844;2023-06-22T07:43:35;17.05;;;14.73;;
54201;SDS011;40108;53.152;5.844;2023-06-22T07:46:02;18.42;;;15.75;;
54201;SDS011;40108;53.152;5.844;2023-06-22T07:48:28;17.85;;;15.95;;
54201;SDS011;40108;53.152;5.844;2023-06-22T07:50:54;18.75;;;16.75;;
54201;SDS011;40108;53.152;5.844;2023-06-22T07:53:20;18.35;;;16.45;;
54201;SDS011;40108;53.152;5.844;2023-06-22T07:55:47;22.23;;;17.63;;
54201;SDS011;40108;53.152;5.844;2023-06-22T07:58:13;18.58;;;16.45;;
54201;SDS011;40108;53.152;5.844;2023-06-22T08:00:38;21.35;;;17.88;;
54201;SDS011;40108;53.152;5.844;2023-06-22T08:03:04;22.15;;;16.90;;
54201;SDS011;40108;53.152;5.844;2023-06-22T08:05:30;20.65;;;17.38;;
54201;SDS011;40108;53.152;5.844;2023-06-22T08:07:56;19.73;;;16.38;;
54201;SDS011;40108;53.152;5.844;2023-06-22T08:10:22;18.40;;;16.17;;
54201;SDS011;40108;53.152;5.844;2023-06-22T08:12:48;19.98;;;17.00;;
54201;SDS011;40108;53.152;5.844;2023-06-22T08:15:14;16.92;;;14.38;;
54201;SDS011;40108;53.152;5.844;2023-06-22T08:17:40;15.73;;;13.77;;
54201;SDS011;40108;53.152;5.844;2023-06-22T08:20:06;15.73;;;14.13;;
54201;SDS011;40108;53.152;5.844;2023-06-22T08:22:37;15.93;;;13.27;;
54201;SDS011;40108;53.152;5.844;2023-06-22T08:25:03;18.25;;;12.27;;
54201;SDS011;40108;53.152;5.844;2023-06-22T08:27:30;18.23;;;13.65;;
54201;SDS011;40108;53.152;5.844;2023-06-22T08:29:59;15.02;;;12.43;;
54201;SDS011;40108;53.152;5.844;2023-06-22T08:32:25;11.75;;;10.00;;
54201;SDS011;40108;53.152;5.844;2023-06-22T08:34:55;16.13;;;12.30;;
54201;SDS011;40108;53.152;5.844;2023-06-22T08:37:22;14.95;;;13.38;;
54201;SDS011;40108;53.152;5.844;2023-06-22T08:39:55;17.48;;;12.70;;
54201;SDS011;40108;53.152;5.844;2023-06-22T08:42:24;13.85;;;11.27;;
54201;SDS011;40108;53.152;5.844;2023-06-22T08:44:50;14.75;;;11.40;;
54201;SDS011;40108;53.152;5.844;2023-06-22T08:47:16;16.60;;;13.35;;
54201;SDS011;40108;53.152;5.844;2023-06-22T08:49:42;17.55;;;12.18;;
54201;SDS011;40108;53.152;5.844;2023-06-22T08:52:08;12.77;;;11.48;;
54201;SDS011;40108;53.152;5.844;2023-06-22T08:54:33;15.82;;;11.43;;
54201;SDS011;40108;53.152;5.844;2023-06-22T08:57:00;12.98;;;11.60;;
54201;SDS011;40108;53.152;5.844;2023-06-22T08:59:27;12.63;;;10.63;;
54201;SDS011;40108;53.152;5.844;2023-06-22T09:01:53;14.95;;;11.57;;
54201;SDS011;40108;53.152;5.844;2023-06-22T09:04:18;14.88;;;10.68;;
54201;SDS011;40108;53.152;5.844;2023-06-22T09:06:47;15.75;;;12.05;;
54201;SDS011;40108;53.152;5.844;2023-06-22T09:09:15;19.67;;;14.18;;
54201;SDS011;40108;53.152;5.844;2023-06-22T09:11:41;16.20;;;13.15;;
54201;SDS011;40108;53.152;5.844;2023-06-22T09:14:07;15.50;;;13.82;;
54201;SDS011;40108;53.152;5.844;2023-06-22T09:16:34;12.75;;;11.07;;
54201;SDS011;40108;53.152;5.844;2023-06-22T09:19:00;13.85;;;10.55;;
54201;SDS011;40108;53.152;5.844;2023-06-22T09:21:25;12.27;;;9.95;;
54201;SDS011;40108;53.152;5.844;2023-06-22T09:23:51;12.88;;;10.00;;
54201;SDS011;40108;53.152;5.844;2023-06-22T09:26:17;11.57;;;10.15;;
54201;SDS011;40108;53.152;5.844;2023-06-22T09:28:43;12.68;;;9.70;;
54201;SDS011;40108;53.152;5.844;2023-06-22T09:31:09;14.57;;;11.52;;
54201;SDS011;40108;53.152;5.844;2023-06-22T09:33:35;15.18;;;13.48;;
54201;SDS011;40108;53.152;5.844;2023-06-22T09:36:03;12.55;;;10.10;;
54201;SDS011;40108;53.152;5.844;2023-06-22T09:38:34;13.38;;;10.07;;
54201;SDS011;40108;53.152;5.844;2023-06-22T09:41:00;13.52;;;10.52;;
54201;SDS011;40108;53.152;5.844;2023-06-22T09:43:26;9.90;;;8.90;;
54201;SDS011;40108;53.152;5.844;2023-06-22T09:45:52;12.38;;;10.75;;
54201;SDS011;40108;53.152;5.844;2023-06-22T09:48:18;11.90;;;10.70;;
54201;SDS011;40108;53.152;5.844;2023-06-22T09:50:44;13.60;;;11.60;;
54201;SDS011;40108;53.152;5.844;2023-06-22T09:53:10;13.80;;;10.80;;
54201;SDS011;40108;53.152;5.844;2023-06-22T09:55:36;13.55;;;11.13;;
54201;SDS011;40108;53.152;5.844;2023-06-22T09:58:01;11.68;;;9.75;;
54201;SDS011;40108;53.152;5.844;2023-06-22T10:00:27;14.05;;;11.02;;
54201;SDS011;40108;53.152;5.844;2023-06-22T10:02:53;27.35;;;10.07;;
54201;SDS011;40108;53.152;5.844;2023-06-22T10:05:19;11.68;;;8.07;;
54201;SDS011;40108;53.152;5.844;2023-06-22T10:07:45;9.55;;;7.00;;
54201;SDS011;40108;53.152;5.844;2023-06-22T10:10:11;9.15;;;5.97;;
54201;SDS011;40108;53.152;5.844;2023-06-22T10:12:40;12.00;;;9.00;;
54201;SDS011;40108;53.152;5.844;2023-06-22T10:15:11;10.52;;;7.40;;
54201;SDS011;40108;53.152;5.844;2023-06-22T10:17:37;13.73;;;9.15;;
54201;SDS011;40108;53.152;5.844;2023-06-22T10:20:03;10.80;;;7.97;;
54201;SDS011;40108;53.152;5.844;2023-06-22T10:22:36;9.85;;;7.97;;
54201;SDS011;40108;53.152;5.844;2023-06-22T10:25:06;8.63;;;6.55;;
54201;SDS011;40108;53.152;5.844;2023-06-22T10:27:32;8.27;;;6.45;;
54201;SDS011;40108;53.152;5.844;2023-06-22T10:29:59;9.52;;;6.03;;
54201;SDS011;40108;53.152;5.844;2023-06-22T10:32:24;12.13;;;8.77;;
54201;SDS011;40108;53.152;5.844;2023-06-22T10:34:50;8.07;;;6.97;;
54201;SDS011;40108;53.152;5.844;2023-06-22T10:37:16;10.25;;;6.95;;
54201;SDS011;40108;53.152;5.844;2023-06-22T10:39:42;7.43;;;6.72;;
54201;SDS011;40108;53.152;5.844;2023-06-22T10:42:07;8.25;;;7.43;;
54201;SDS011;40108;53.152;5.844;2023-06-22T10:44:33;9.00;;;7.22;;
54201;SDS011;40108;53.152;5.844;2023-06-22T10:46:59;11.43;;;6.80;;
54201;SDS011;40108;53.152;5.844;2023-06-22T10:49:25;6.53;;;5.75;;
54201;SDS011;40108;53.152;5.844;2023-06-22T10:51:50;8.63;;;6.45;;
54201;SDS011;40108;53.152;5.844;2023-06-22T10:54:16;6.78;;;5.57;;
54201;SDS011;40108;53.152;5.844;2023-06-22T10:56:44;7.90;;;5.75;;
54201;SDS011;40108;53.152;5.844;2023-06-22T10:59:10;7.90;;;5.78;;
54201;SDS011;40108;53.152;5.844;2023-06-22T11:01:35;8.88;;;5.72;;
54201;SDS011;40108;53.152;5.844;2023-06-22T11:04:02;11.35;;;7.45;;
54201;SDS011;40108;53.152;5.844;2023-06-22T11:06:28;6.55;;;5.60;;
54201;SDS011;40108;53.152;5.844;2023-06-22T11:08:53;8.18;;;6.88;;
54201;SDS011;40108;53.152;5.844;2023-06-22T11:11:19;6.10;;;5.50;;
54201;SDS011;40108;53.152;5.844;2023-06-22T11:13:45;8.05;;;6.45;;
54201;SDS011;40108;53.152;5.844;2023-06-22T11:16:11;8.18;;;6.78;;
54201;SDS011;40108;53.152;5.844;2023-06-22T11:18:36;9.68;;;6.60;;
54201;SDS011;40108;53.152;5.844;2023-06-22T11:21:02;8.73;;;7.20;;
54201;SDS011;40108;53.152;5.844;2023-06-22T11:23:28;7.50;;;6.70;;
54201;SDS011;40108;53.152;5.844;2023-06-22T11:25:54;9.23;;;6.63;;
54201;SDS011;40108;53.152;5.844;2023-06-22T11:28:20;9.75;;;8.00;;
54201;SDS011;40108;53.152;5.844;2023-06-22T11:30:45;11.48;;;8.07;;
54201;SDS011;40108;53.152;5.844;2023-06-22T11:33:11;8.65;;;6.35;;
54201;SDS011;40108;53.152;5.844;2023-06-22T11:35:37;9.52;;;6.80;;
54201;SDS011;40108;53.152;5.844;2023-06-22T11:38:03;7.63;;;5.63;;
54201;SDS011;40108;53.152;5.844;2023-06-22T11:40:30;7.45;;;6.22;;
54201;SDS011;40108;53.152;5.844;2023-06-22T11:42:56;8.48;;;6.53;;
54201;SDS011;40108;53.152;5.844;2023-06-22T11:45:21;10.70;;;6.18;;
54201;SDS011;40108;53.152;5.844;2023-06-22T11:47:47;8.48;;;5.60;;
54201;SDS011;40108;53.152;5.844;2023-06-22T11:50:13;7.38;;;5.10;;
54201;SDS011;40108;53.152;5.844;2023-06-22T11:52:39;7.32;;;5.90;;
54201;SDS011;40108;53.152;5.844;2023-06-22T11:55:05;9.65;;;5.65;;
54201;SDS011;40108;53.152;5.844;2023-06-22T11:57:35;7.47;;;5.97;;
54201;SDS011;40108;53.152;5.844;2023-06-22T12:00:05;8.18;;;6.30;;
54201;SDS011;40108;53.152;5.844;2023-06-22T12:02:40;5.93;;;5.28;;
54201;SDS011;40108;53.152;5.844;2023-06-22T12:05:06;7.93;;;5.85;;
54201;SDS011;40108;53.152;5.844;2023-06-22T12:07:33;8.07;;;5.30;;
54201;SDS011;40108;53.152;5.844;2023-06-22T12:09:59;7.07;;;5.03;;
54201;SDS011;40108;53.152;5.844;2023-06-22T12:12:24;9.75;;;5.70;;
54201;SDS011;40108;53.152;5.844;2023-06-22T12:14:50;6.45;;;5.47;;
54201;SDS011;40108;53.152;5.844;2023-06-22T12:17:16;9.02;;;5.68;;
54201;SDS011;40108;53.152;5.844;2023-06-22T12:19:41;11.15;;;5.32;;
54201;SDS011;40108;53.152;5.844;2023-06-22T12:22:07;6.40;;;5.10;;
54201;SDS011;40108;53.152;5.844;2023-06-22T12:24:33;8.25;;;5.22;;
54201;SDS011;40108;53.152;5.844;2023-06-22T12:26:58;8.13;;;4.40;;
54201;SDS011;40108;53.152;5.844;2023-06-22T12:29:24;5.10;;;4.15;;
54201;SDS011;40108;53.152;5.844;2023-06-22T12:31:49;5.47;;;4.10;;
54201;SDS011;40108;53.152;5.844;2023-06-22T12:34:15;6.00;;;4.22;;
54201;SDS011;40108;53.152;5.844;2023-06-22T12:36:41;7.80;;;3.70;;
54201;SDS011;40108;53.152;5.844;2023-06-22T12:39:07;4.65;;;3.60;;
54201;SDS011;40108;53.152;5.844;2023-06-22T12:41:32;5.72;;;3.08;;
54201;SDS011;40108;53.152;5.844;2023-06-22T12:43:58;6.47;;;3.20;;
54201;SDS011;40108;53.152;5.844;2023-06-22T12:46:24;3.25;;;2.80;;
54201;SDS011;40108;53.152;5.844;2023-06-22T12:48:49;6.60;;;3.58;;
54201;SDS011;40108;53.152;5.844;2023-06-22T12:51:24;4.90;;;3.47;;
54201;SDS011;40108;53.152;5.844;2023-06-22T12:53:50;7.25;;;3.22;;
54201;SDS011;40108;53.152;5.844;2023-06-22T12:56:15;4.93;;;3.10;;
54201;SDS011;40108;53.152;5.844;2023-06-22T12:58:41;5.40;;;3.65;;
54201;SDS011;40108;53.152;5.844;2023-06-22T13:01:07;4.53;;;2.65;;
54201;SDS011;40108;53.152;5.844;2023-06-22T13:03:32;3.65;;;2.80;;
54201;SDS011;40108;53.152;5.844;2023-06-22T13:05:58;4.95;;;3.30;;
54201;SDS011;40108;53.152;5.844;2023-06-22T13:08:24;9.00;;;2.97;;
54201;SDS011;40108;53.152;5.844;2023-06-22T13:10:50;4.85;;;3.30;;
54201;SDS011;40108;53.152;5.844;2023-06-22T13:13:16;5.78;;;2.75;;
54201;SDS011;40108;53.152;5.844;2023-06-22T13:15:41;8.18;;;3.10;;
54201;SDS011;40108;53.152;5.844;2023-06-22T13:18:07;3.00;;;2.53;;
54201;SDS011;40108;53.152;5.844;2023-06-22T13:20:33;6.03;;;2.10;;
54201;SDS011;40108;53.152;5.844;2023-06-22T13:22:59;9.23;;;2.75;;
54201;SDS011;40108;53.152;5.844;2023-06-22T13:25:25;3.30;;;2.20;;
54201;SDS011;40108;53.152;5.844;2023-06-22T13:27:51;6.18;;;2.05;;
54201;SDS011;40108;53.152;5.844;2023-06-22T13:30:17;3.75;;;1.50;;
54201;SDS011;40108;53.152;5.844;2023-06-22T13:32:43;1.85;;;1.58;;
54201;SDS011;40108;53.152;5.844;2023-06-22T13:35:09;3.50;;;1.50;;
54201;SDS011;40108;53.152;5.844;2023-06-22T13:37:36;2.58;;;1.60;;
54201;SDS011;40108;53.152;5.844;2023-06-22T13:40:02;4.68;;;1.45;;
54201;SDS011;40108;53.152;5.844;2023-06-22T13:42:30;1.92;;;1.40;;
54201;SDS011;40108;53.152;5.844;2023-06-22T13:44:56;4.45;;;1.33;;
54201;SDS011;40108;53.152;5.844;2023-06-22T13:47:22;2.28;;;1.38;;
54201;SDS011;40108;53.152;5.844;2023-06-22T13:49:47;1.95;;;1.58;;
54201;SDS011;40108;53.152;5.844;2023-06-22T13:52:13;2.53;;;1.50;;
54201;SDS011;40108;53.152;5.844;2023-06-22T13:54:39;3.55;;;1.70;;
54201;SDS011;40108;53.152;5.844;2023-06-22T13:57:05;2.50;;;1.55;;
54201;SDS011;40108;53.152;5.844;2023-06-22T13:59:31;3.80;;;1.65;;
54201;SDS011;40108;53.152;5.844;2023-06-22T14:01:56;2.97;;;1.30;;
54201;SDS011;40108;53.152;5.844;2023-06-22T14:04:25;2.22;;;1.60;;
54201;SDS011;40108;53.152;5.844;2023-06-22T14:06:51;4.22;;;1.90;;
54201;SDS011;40108;53.152;5.844;2023-06-22T14:09:17;3.05;;;1.40;;
54201;SDS011;40108;53.152;5.844;2023-06-22T14:11:42;3.33;;;1.25;;
54201;SDS011;40108;53.152;5.844;2023-06-22T14:14:08;3.15;;;1.50;;
54201;SDS011;40108;53.152;5.844;2023-06-22T14:16:34;1.77;;;1.00;;
54201;SDS011;40108;53.152;5.844;2023-06-22T14:18:59;4.93;;;1.25;;
54201;SDS011;40108;53.152;5.844;2023-06-22T14:21:25;2.88;;;1.20;;
54201;SDS011;40108;53.152;5.844;2023-06-22T14:23:51;5.07;;;1.23;;
54201;SDS011;40108;53.152;5.844;2023-06-22T14:26:17;1.83;;;0.93;;
54201;SDS011;40108;53.152;5.844;2023-06-22T14:28:46;6.53;;;1.10;;
54201;SDS011;40108;53.152;5.844;2023-06-22T14:31:15;2.85;;;1.10;;
54201;SDS011;40108;53.152;5.844;2023-06-22T14:33:45;1.95;;;1.20;;
54201;SDS011;40108;53.152;5.844;2023-06-22T14:36:12;2.73;;;1.13;;